TENO2: Tenkiller Lake

Data processed at Fri Jan 11 2019 23:32


All information presented herein is the property of the government of the United States of America and may be revised or deleted at any time without prior notice.
Dissemination of this information without the expressed written consent of the Public Affairs Office, Tulsa District U.S. Army Corps of Engineers is strictly prohibited.
These data are gathered electronically and, as presented, have not undergone any form of quality control. These data are not guaranteed to be valid or correct.
Go to home page.
Go to station list.
Go to home page.

Upstream stations:

Downstream station:
Previous Day
Next Day
Current Day
    
SHEF ID:       TENO2     Tenkiller Lake
STATION TYPE:  Reservoir
Normal Pool:  Bottom =   594.50, Top =   632.00

               PRECIP PRECIP(A) ELEVATION   STORAGE   TW-ELEV    INFLOW   RELEASE  AIR-TEMP  WIND-DIRWIND-SPEED REL-HUMID SOLAR-RAD   VOLTAGE  BAT-LOAD
                   in        in        ft     ac-ft        ft       cfs       cfs         F       deg       mph         %      W/m2      volt      volt
              Ccp-Rev   Ccp-Rev   Ccp-Rev   Ccp-Rev   Ccp-Rev  Regi-Rev  Regi-Rev   Ccp-Rev   Ccp-Rev   Ccp-Rev   Ccp-Rev   Ccp-Rev   Ccp-Rev   Ccp-Rev
(US/Central)
01/11 00:00      0.00      ----    639.55    771376    486.96      2741      3354     38.52     79.40      2.30     38.98      0.00     13.62     12.92
01/11 01:00      0.00      ----    639.55    771376    486.93      2726      3354     38.34    110.80      3.40     39.35      0.00     13.62     12.91
01/11 02:00      0.00      ----    639.54    771234    486.84      2018      3536     38.73     97.60      3.50     29.92      0.00     13.62     12.91
01/11 03:00      0.00      ----    639.53    771092    486.86      2379      3354     38.82     94.90      3.50     29.46      0.00     13.62     12.90
01/11 04:00      0.00      ----    639.51    770809    486.86      2365      3354     38.93    118.80      3.50     33.50      0.00     13.62     12.93
01/11 05:00      0.00      ----    639.52    770950    486.86      2000      3445     38.07    101.00      3.00     40.50      0.00     13.62     12.92
01/11 06:00      0.00      ----    639.52    770950    486.79      3333      3354     37.13     85.60      3.30     45.93      0.00     13.62     12.91
01/11 07:00      0.11      ----    639.50    770667    486.82      3436      3354     36.09     74.20      3.40     51.91      0.00     13.62     12.92
01/11 08:00      0.00      ----    639.52    770950    486.82      2507      4800     36.30    106.80      4.60     48.11      0.00     13.61     12.93
01/11 09:00      0.04      ----    639.51    770809    486.81      3988      4800     36.10    106.70      3.80     47.55      0.00     13.62     12.90
01/11 10:00      0.00      ----    639.47    770242    486.81      3988      4800     36.93     98.30      4.10     45.31      0.00     13.62     12.93
01/11 11:00      0.05      ----    639.50    770667    487.82      3925      6200     36.27    102.10      4.20     58.35      2.70     13.62     12.92
01/11 12:00      0.14      ----    639.46    770100    487.97      5063      6200     36.12     84.00      4.50     50.62     10.20     13.62     12.92
01/11 13:00      0.09      ----    639.47    770242    487.94      5514      6200     36.05     83.80      4.00     57.98     27.50     13.61     12.93
01/11 14:00      0.11      ----    639.47    770242    487.99      3588      6200     36.50     93.40      4.10     58.70     14.50     13.62     12.94
01/11 15:00      0.01      ----    639.45    769958    487.93      4142      6200     36.64     90.20      4.60     58.88     11.50     13.62     12.93
01/11 16:00      0.03      ----    639.42    769533    487.96      3799      6200     36.75     95.30      5.10     60.64      2.00     13.62     12.93
01/11 17:00      0.02      ----    639.40    769250    487.99      3113      6200     36.90     94.10      5.30     57.23      0.00     13.62     12.92
01/11 18:00      0.00      ----    639.40    769250    487.92      3799      6200     37.13     82.70      4.60     53.35      0.00     13.62     12.92
01/11 19:00      0.00      ----    639.38    768966    487.93      4142      6200     37.29     87.60      5.10     56.35      0.00     13.62     12.93
01/11 20:00      0.00      ----    639.38    768966    488.07      4485      6200     37.04     86.40      4.40     63.76      0.00     13.62     12.93
01/11 21:00      0.01      ----    639.36    768683    488.02      3799      6200     37.20     90.60      4.30     59.88      0.00     13.62     12.92
01/11 22:00      0.01      ----    639.35    768541    487.91      4485      6200     37.24     79.00      4.10     63.63      0.00     13.61     12.93
01/11 23:00      0.04      ----    639.33    768258    488.02      -901      -901     37.29     83.10      3.90     55.09      0.00     13.62     12.92